createdAt,value
2023-04-20T03:47:59.309Z,15.09
2023-04-20T03:50:25.836Z,15.09
2023-04-20T03:52:52.266Z,15.08
2023-04-20T03:55:18.598Z,15.08
2023-04-20T03:57:45.028Z,15.06
2023-04-20T04:00:11.634Z,15.05
2023-04-20T04:02:38.645Z,15.04
2023-04-20T04:10:54.145Z,14.98
2023-04-20T04:13:20.645Z,14.98
2023-04-20T04:15:47.069Z,14.96
2023-04-20T04:18:13.478Z,14.94
2023-04-20T04:20:39.861Z,14.93
2023-04-20T04:23:06.339Z,14.91
2023-04-20T04:25:32.700Z,14.89
2023-04-20T04:27:59.045Z,14.87
2023-04-20T04:30:39.209Z,14.85
2023-04-20T04:33:07.853Z,14.83
2023-04-20T04:35:34.371Z,14.82
2023-04-20T04:38:00.650Z,14.81
2023-04-20T04:40:26.888Z,14.80
2023-04-20T04:42:53.199Z,14.79
2023-04-20T04:45:19.550Z,14.78
2023-04-20T04:47:45.943Z,14.76
2023-04-20T04:50:12.371Z,14.76
2023-04-20T04:52:38.751Z,14.75
2023-04-20T04:55:07.557Z,14.74
2023-04-20T04:57:36.541Z,14.73
2023-04-20T05:00:09.191Z,14.70
2023-04-20T05:02:47.373Z,14.68
2023-04-20T05:05:28.929Z,14.66
2023-04-20T05:11:17.424Z,14.65
2023-04-20T05:26:01.973Z,14.58
2023-04-20T05:28:28.803Z,14.57
2023-04-20T05:30:55.341Z,14.56
2023-04-20T05:33:21.769Z,14.55
2023-04-20T05:35:48.163Z,14.53
2023-04-20T05:38:14.523Z,14.51
2023-04-20T05:40:40.793Z,14.49
2023-04-20T05:43:07.031Z,14.47
2023-04-20T05:45:33.477Z,14.36
2023-04-20T05:47:59.817Z,14.42
2023-04-20T05:50:26.208Z,14.41
2023-04-20T05:52:52.717Z,14.37
2023-04-20T05:55:21.416Z,14.37
2023-04-20T05:57:48.785Z,14.36
2023-04-20T06:00:16.481Z,14.38
2023-04-20T06:02:43.029Z,14.62
2023-04-20T06:05:09.732Z,14.94
2023-04-20T06:07:36.183Z,15.24
2023-04-20T06:10:02.433Z,15.50
2023-04-20T06:12:28.659Z,15.72
2023-04-20T06:14:54.930Z,15.91
2023-04-20T06:17:21.246Z,16.07
2023-04-20T06:19:47.477Z,16.19
2023-04-20T06:22:13.719Z,16.29
2023-04-20T06:24:39.949Z,16.38
2023-04-20T06:27:06.167Z,16.46
2023-04-20T06:29:32.362Z,16.52
2023-04-20T06:31:58.626Z,16.60
2023-04-20T06:34:24.839Z,16.66
2023-04-20T06:36:51.093Z,16.71
2023-04-20T06:39:17.581Z,16.75
2023-04-20T06:41:45.385Z,16.80
2023-04-20T06:44:11.855Z,16.85
2023-04-20T06:46:38.343Z,16.87
2023-04-20T06:49:05.194Z,16.91
2023-04-20T06:51:34.496Z,16.92
2023-04-20T06:54:02.800Z,16.95
2023-04-20T06:56:29.146Z,16.97
2023-04-20T06:58:55.635Z,16.99
2023-04-20T07:01:22.126Z,17.02
2023-04-20T07:03:52.691Z,17.04
2023-04-20T07:06:19.521Z,17.04
2023-04-20T07:08:45.955Z,17.05
2023-04-20T07:11:12.330Z,17.06
2023-04-20T07:13:41.412Z,17.06
2023-04-20T07:16:07.979Z,17.06
2023-04-20T07:18:35.433Z,17.05
2023-04-20T07:21:02.170Z,17.06
2023-04-20T07:23:28.556Z,17.08
2023-04-20T07:25:55.004Z,17.11
2023-04-20T07:28:21.277Z,17.12
2023-04-20T07:30:47.847Z,17.14
2023-04-20T07:33:14.414Z,17.16
2023-04-20T07:35:40.928Z,17.18
2023-04-20T07:38:07.450Z,17.20
2023-04-20T07:40:48.201Z,17.22
2023-04-20T07:46:10.586Z,17.26
2023-04-20T07:49:06.720Z,17.29
2023-04-20T07:54:34.737Z,17.32
2023-04-20T07:57:01.144Z,17.34
2023-04-20T07:59:47.229Z,17.34
2023-04-20T08:02:13.663Z,17.37
2023-04-20T08:04:40.402Z,17.38
2023-04-20T08:07:07.003Z,17.39
2023-04-20T08:09:33.449Z,17.37
2023-04-20T08:11:59.798Z,17.37
2023-04-20T08:14:26.145Z,17.36
2023-04-20T08:16:52.493Z,17.36
2023-04-20T08:19:19.014Z,17.36
2023-04-20T08:21:45.419Z,17.36
2023-04-20T08:24:11.769Z,17.37
2023-04-20T08:26:38.281Z,17.39
2023-04-20T08:29:04.650Z,17.40
2023-04-20T08:31:31.046Z,17.41
2023-04-20T08:33:58.804Z,17.43
2023-04-20T08:36:49.498Z,17.44
2023-04-20T08:39:23.186Z,17.47
2023-04-20T08:41:49.700Z,17.46
2023-04-20T08:44:16.043Z,17.46
2023-04-20T08:46:42.408Z,17.45
2023-04-20T08:49:09.055Z,17.46
2023-04-20T08:51:35.255Z,17.49
2023-04-20T08:54:03.586Z,17.53
2023-04-20T08:56:29.821Z,17.53
2023-04-20T08:58:56.144Z,17.54
2023-04-20T09:01:28.727Z,17.55
2023-04-20T09:04:01.057Z,17.61
2023-04-20T09:06:27.436Z,17.67
2023-04-20T09:08:55.718Z,17.68
2023-04-20T09:11:21.983Z,17.68
2023-04-20T09:13:48.199Z,17.69
2023-04-20T09:16:14.415Z,17.67
2023-04-20T09:21:34.030Z,17.61
2023-04-20T09:24:00.368Z,17.58
2023-04-20T09:26:26.635Z,17.57
2023-04-20T09:28:53.004Z,17.57
2023-04-20T09:31:19.317Z,17.58
2023-04-20T09:33:45.694Z,17.61
2023-04-20T09:36:12.483Z,17.65
2023-04-20T09:38:39.844Z,17.68
2023-04-20T09:41:54.320Z,17.77
2023-04-20T09:43:56.688Z,17.95
2023-04-20T09:46:23.526Z,18.01
2023-04-20T09:48:49.792Z,18.13
2023-04-20T09:51:16.053Z,18.25
2023-04-20T09:53:42.244Z,18.24
2023-04-20T09:56:08.446Z,18.21
2023-04-20T09:58:34.716Z,18.18
2023-04-20T10:01:00.987Z,18.17
2023-04-20T10:03:27.439Z,18.18
2023-04-20T10:05:53.713Z,18.19
2023-04-20T10:08:22.070Z,18.20
2023-04-20T10:10:48.293Z,18.20
2023-04-20T10:13:14.629Z,18.22
2023-04-20T10:15:40.883Z,18.20
2023-04-20T10:18:07.146Z,18.19
2023-04-20T10:20:33.457Z,18.20
2023-04-20T10:22:59.706Z,18.19
2023-04-20T10:25:25.997Z,18.17
2023-04-20T10:30:37.303Z,18.14
2023-04-20T10:33:03.712Z,18.12
2023-04-20T10:35:29.944Z,18.12
2023-04-20T10:37:56.164Z,18.10
2023-04-20T10:40:22.399Z,18.08
2023-04-20T10:42:48.624Z,18.07
2023-04-20T10:45:14.830Z,18.09
2023-04-20T10:47:41.171Z,18.11
2023-04-20T10:50:07.525Z,18.13
2023-04-20T10:52:33.735Z,18.14
2023-04-20T10:55:00.028Z,18.20
2023-04-20T10:57:26.228Z,18.28
2023-04-20T10:59:52.452Z,18.34
2023-04-20T11:02:18.781Z,18.35
2023-04-20T11:04:45.107Z,18.35
2023-04-20T11:07:11.554Z,18.39
2023-04-20T11:09:37.803Z,18.43
2023-04-20T11:12:04.284Z,18.44
2023-04-20T11:14:30.749Z,18.47
2023-04-20T11:16:57.294Z,18.50
2023-04-20T11:19:25.006Z,18.53
2023-04-20T11:21:51.385Z,18.65
2023-04-20T11:24:19.595Z,18.72
2023-04-20T11:26:46.062Z,18.77
2023-04-20T11:29:12.360Z,18.78
2023-04-20T11:31:38.910Z,18.86
2023-04-20T11:34:07.080Z,18.85
2023-04-20T11:36:33.647Z,18.83
2023-04-20T11:39:00.262Z,18.84
2023-04-20T11:41:26.603Z,18.89
2023-04-20T11:43:53.013Z,18.88
2023-04-20T11:46:20.687Z,18.90
2023-04-20T11:48:47.697Z,18.85
2023-04-20T11:51:14.521Z,18.87
2023-04-20T11:53:40.842Z,18.92
2023-04-20T11:56:08.216Z,18.89
2023-04-20T11:58:35.554Z,18.85
2023-04-20T12:01:03.033Z,18.87
2023-04-20T12:06:41.008Z,18.90
2023-04-20T12:09:25.902Z,18.93
2023-04-20T12:11:52.426Z,18.98
2023-04-20T12:14:18.808Z,19.05
2023-04-20T12:16:45.405Z,19.02
2023-04-20T12:19:11.758Z,19.02
2023-04-20T12:21:38.099Z,19.06
2023-04-20T12:24:04.400Z,19.06
2023-04-20T12:26:37.888Z,19.01
2023-04-20T12:29:04.928Z,19.02
2023-04-20T12:31:31.255Z,19.05
2023-04-20T12:33:57.929Z,19.06
2023-04-20T12:36:24.880Z,19.07
2023-04-20T12:38:51.552Z,19.08
2023-04-20T12:41:17.810Z,19.13
2023-04-20T12:43:49.469Z,19.16
2023-04-20T12:46:15.974Z,19.23
2023-04-20T12:48:42.428Z,19.31
2023-04-20T12:51:08.857Z,19.36
2023-04-20T12:53:35.409Z,19.39
2023-04-20T12:56:02.077Z,19.40
2023-04-20T12:58:28.629Z,19.39
2023-04-20T13:00:55.332Z,19.39
2023-04-20T13:03:21.959Z,19.38
2023-04-20T13:05:48.612Z,19.39
2023-04-20T13:08:14.923Z,19.39
2023-04-20T13:10:45.217Z,19.39
2023-04-20T13:13:11.547Z,19.41
2023-04-20T13:15:39.118Z,19.41
2023-04-20T13:18:06.229Z,19.40
2023-04-20T13:20:32.975Z,19.37
2023-04-20T13:22:59.350Z,19.33
2023-04-20T13:25:25.631Z,19.29
2023-04-20T13:27:52.229Z,19.27
2023-04-20T13:30:18.583Z,19.27
2023-04-20T13:32:45.217Z,19.28
2023-04-20T13:35:14.696Z,19.28
2023-04-20T13:37:40.945Z,19.28
2023-04-20T13:40:10.214Z,19.26
2023-04-20T13:42:36.629Z,19.24
2023-04-20T13:45:03.528Z,19.22
2023-04-20T13:47:30.239Z,19.20
2023-04-20T13:49:57.428Z,19.18
2023-04-20T13:52:24.027Z,19.17
2023-04-20T13:54:50.327Z,19.15
2023-04-20T13:57:16.875Z,19.15
2023-04-20T13:59:43.221Z,19.13
2023-04-20T14:02:09.717Z,19.11
2023-04-20T14:04:36.591Z,19.09
2023-04-20T14:07:03.110Z,19.09
2023-04-20T14:09:29.528Z,19.09
2023-04-20T14:11:57.182Z,19.07
2023-04-20T14:14:26.688Z,19.05
2023-04-20T14:16:53.029Z,19.04
2023-04-20T14:19:19.564Z,19.02
2023-04-20T14:21:46.363Z,19.01
2023-04-20T14:24:12.849Z,19.01
2023-04-20T14:26:39.268Z,19.00
2023-04-20T14:29:05.592Z,18.97
2023-04-20T14:31:32.023Z,18.95
2023-04-20T14:33:58.357Z,18.92
2023-04-20T14:36:24.698Z,18.91
2023-04-20T14:38:51.073Z,18.87
2023-04-20T14:41:17.507Z,18.87
2023-04-20T14:43:43.824Z,18.83
2023-04-20T14:46:10.400Z,18.82
2023-04-20T14:48:36.749Z,18.82
2023-04-20T14:51:03.080Z,18.81
2023-04-20T14:53:30.546Z,18.83
2023-04-20T14:58:48.571Z,18.83
2023-04-20T15:01:15.190Z,18.83
2023-04-20T15:03:42.276Z,18.82
2023-04-20T15:08:49.665Z,18.83
2023-04-20T15:11:16.070Z,18.85
2023-04-20T15:13:42.373Z,18.89
2023-04-20T15:16:31.695Z,18.93
2023-04-20T15:18:58.688Z,18.96
2023-04-20T15:21:25.052Z,19.01
2023-04-20T15:23:51.421Z,19.03
2023-04-20T15:26:17.764Z,19.06
2023-04-20T15:28:44.600Z,19.08
2023-04-20T15:31:10.845Z,19.10
2023-04-20T15:33:37.142Z,19.12
2023-04-20T15:36:03.506Z,19.14
2023-04-20T15:38:29.873Z,19.17
2023-04-20T15:40:56.938Z,19.18
2023-04-20T15:43:23.529Z,19.21
2023-04-20T15:45:50.000Z,19.23
2023-04-20T15:48:16.781Z,19.23
2023-04-20T15:50:43.251Z,19.21
2023-04-20T15:53:09.687Z,19.23
2023-04-20T15:55:36.913Z,19.24
2023-04-20T15:58:03.242Z,19.26
2023-04-20T16:00:29.589Z,19.25
2023-04-20T16:02:56.272Z,19.25
2023-04-20T16:05:22.778Z,19.24
2023-04-20T16:07:49.137Z,19.22
2023-04-20T16:10:16.321Z,19.20
2023-04-20T16:15:53.630Z,19.17
2023-04-20T16:18:20.010Z,19.17
2023-04-20T16:20:46.361Z,19.15
2023-04-20T16:23:12.712Z,19.14
2023-04-20T16:25:39.049Z,19.14
2023-04-20T16:28:05.399Z,19.14
2023-04-20T16:30:31.699Z,19.12
2023-04-20T16:32:58.103Z,19.12
2023-04-20T16:35:24.497Z,19.09
2023-04-20T16:37:51.034Z,19.07
2023-04-20T16:40:17.386Z,19.05
2023-04-20T16:42:43.908Z,19.03
2023-04-20T16:45:10.453Z,19.02
2023-04-20T16:47:36.924Z,19.00
2023-04-20T16:50:03.247Z,18.98
2023-04-20T16:52:29.708Z,18.97
2023-04-20T16:54:56.070Z,18.96
2023-04-20T16:57:22.493Z,18.95
2023-04-20T16:59:49.179Z,18.92
2023-04-20T17:02:15.645Z,18.88
2023-04-20T17:04:42.451Z,18.85
2023-04-20T17:07:08.772Z,18.82
2023-04-20T17:09:35.181Z,18.80
2023-04-20T17:12:01.661Z,18.78
2023-04-20T17:14:27.953Z,18.76
2023-04-20T17:16:54.446Z,18.73
2023-04-20T17:19:20.851Z,18.69
2023-04-20T17:21:47.388Z,18.67
2023-04-20T17:24:15.712Z,18.64
2023-04-20T17:26:42.157Z,18.62
2023-04-20T17:29:08.741Z,18.62
2023-04-20T17:31:35.033Z,18.58
2023-04-20T17:34:01.857Z,18.59
2023-04-20T17:36:28.263Z,18.57
2023-04-20T17:38:54.840Z,18.56
2023-04-20T17:41:21.159Z,18.55
2023-04-20T17:43:47.486Z,18.53
2023-04-20T17:46:13.870Z,18.53
2023-04-20T17:48:40.361Z,18.52
2023-04-20T17:51:06.735Z,18.51
2023-04-20T17:53:35.127Z,18.49
2023-04-20T17:56:01.473Z,18.48
2023-04-20T17:58:27.994Z,18.48
2023-04-20T18:00:54.400Z,18.48
2023-04-20T18:03:20.886Z,18.48
2023-04-20T18:05:47.373Z,18.50
2023-04-20T18:08:14.536Z,18.51
2023-04-20T18:10:40.844Z,18.53
2023-04-20T18:13:07.292Z,18.54
2023-04-20T18:15:36.888Z,18.57
2023-04-20T18:18:04.889Z,18.60
2023-04-20T18:20:32.534Z,18.62
2023-04-20T18:22:59.671Z,18.64
2023-04-20T18:25:26.205Z,18.66
2023-04-20T18:27:52.728Z,18.66
2023-04-20T18:30:19.213Z,18.67
2023-04-20T18:32:45.710Z,18.68
2023-04-20T18:35:12.296Z,18.69
2023-04-20T18:37:38.598Z,18.69
2023-04-20T18:40:04.967Z,18.69
2023-04-20T18:42:31.396Z,18.69
2023-04-20T18:44:57.923Z,18.68
2023-04-20T18:47:24.270Z,18.68
2023-04-20T18:49:50.626Z,18.68
2023-04-20T18:52:16.958Z,18.65
2023-04-20T18:54:43.833Z,18.63
2023-04-20T18:57:10.221Z,18.63
2023-04-20T18:59:36.761Z,18.64
2023-04-20T19:02:03.308Z,18.65
2023-04-20T19:04:29.860Z,18.65
2023-04-20T19:06:56.504Z,18.66
2023-04-20T19:09:23.784Z,18.68
2023-04-20T19:11:50.370Z,18.67
2023-04-20T19:14:17.171Z,18.69
2023-04-20T19:16:44.662Z,18.69
2023-04-20T19:19:11.069Z,18.70
2023-04-20T19:21:37.782Z,18.71
2023-04-20T19:24:04.122Z,18.70
2023-04-20T19:26:30.492Z,18.71
2023-04-20T19:28:57.090Z,18.70
2023-04-20T19:31:23.374Z,18.68
2023-04-20T19:33:49.765Z,18.70
2023-04-20T19:36:16.259Z,18.68
2023-04-20T19:38:43.372Z,18.68
2023-04-20T19:41:09.850Z,18.68
2023-04-20T19:43:36.260Z,18.66
2023-04-20T19:46:02.688Z,18.67
2023-04-20T19:48:29.051Z,18.66
2023-04-20T19:50:55.371Z,18.66
2023-04-20T19:53:21.719Z,18.66
2023-04-20T19:55:48.054Z,18.66
2023-04-20T19:58:14.409Z,18.66
2023-04-20T20:00:40.846Z,18.66
2023-04-20T20:03:07.293Z,18.66
2023-04-20T20:05:34.608Z,18.65
2023-04-20T20:08:00.962Z,18.65
2023-04-20T20:10:27.607Z,18.65
2023-04-20T20:12:53.946Z,18.64
2023-04-20T20:15:20.294Z,18.64
2023-04-20T20:17:46.779Z,18.64
2023-04-20T20:20:13.562Z,18.66
2023-04-20T20:22:48.783Z,18.67
2023-04-20T20:25:15.543Z,18.68
2023-04-20T20:27:41.819Z,18.70
2023-04-20T20:30:08.128Z,18.73
2023-04-20T20:32:35.062Z,18.74
2023-04-20T20:35:01.575Z,18.76
2023-04-20T20:37:31.047Z,18.78
2023-04-20T20:39:57.349Z,18.80
2023-04-20T20:42:23.636Z,18.83
2023-04-20T20:44:50.250Z,18.84
2023-04-20T20:47:16.767Z,18.86
2023-04-20T20:52:38.604Z,18.87
2023-04-20T20:55:05.359Z,18.88
2023-04-20T20:57:31.722Z,18.88
2023-04-20T20:59:58.145Z,18.87
2023-04-20T21:02:24.512Z,18.87
2023-04-20T21:04:51.093Z,18.87
2023-04-20T21:07:17.505Z,18.89
2023-04-20T21:09:43.897Z,18.89
2023-04-20T21:12:10.199Z,18.89
2023-04-20T21:14:36.734Z,18.89
2023-04-20T21:17:03.206Z,18.89
2023-04-20T21:19:29.522Z,18.90
2023-04-20T21:21:55.836Z,18.89
2023-04-20T21:24:22.434Z,18.88
2023-04-20T21:26:48.753Z,18.88
2023-04-20T21:29:15.094Z,18.87
2023-04-20T21:31:41.479Z,18.87
2023-04-20T21:34:07.765Z,18.87
2023-04-20T21:36:34.169Z,18.87
2023-04-20T21:39:00.678Z,18.85
2023-04-20T21:41:27.006Z,18.87
2023-04-20T21:43:53.301Z,18.87
2023-04-20T21:46:19.698Z,18.85
2023-04-20T21:48:46.055Z,18.86
2023-04-20T21:51:12.361Z,18.85
2023-04-20T21:53:38.752Z,18.85
2023-04-20T21:56:05.300Z,18.85
2023-04-20T21:58:31.609Z,18.84
2023-04-20T22:00:58.041Z,18.84
2023-04-20T22:03:24.527Z,18.84
2023-04-20T22:05:54.004Z,18.84
2023-04-20T22:08:20.400Z,18.83
2023-04-20T22:10:46.688Z,18.83
2023-04-20T22:13:13.264Z,18.82
2023-04-20T22:15:39.684Z,18.82
2023-04-20T22:18:06.269Z,18.81
2023-04-20T22:20:32.607Z,18.81
2023-04-20T22:22:59.008Z,18.82
2023-04-20T22:25:28.359Z,18.80
2023-04-20T22:27:54.736Z,18.79
2023-04-20T22:30:21.048Z,18.79
2023-04-20T22:32:47.676Z,18.79
2023-04-20T22:35:14.109Z,18.79
2023-04-20T22:40:34.238Z,18.72
2023-04-20T22:43:02.588Z,18.63
2023-04-20T22:45:28.918Z,18.52
2023-04-20T22:47:55.277Z,18.42
2023-04-20T22:50:21.566Z,18.34
2023-04-20T22:52:47.846Z,18.26
2023-04-20T22:55:14.316Z,18.18
2023-04-20T22:57:40.644Z,18.12
2023-04-20T23:00:06.997Z,18.06
2023-04-20T23:02:35.238Z,17.99
2023-04-20T23:05:02.085Z,17.92
2023-04-20T23:07:30.905Z,17.85
2023-04-20T23:09:57.232Z,17.81
2023-04-20T23:12:23.589Z,17.76
2023-04-20T23:14:49.930Z,17.71
2023-04-20T23:17:16.465Z,17.65
2023-04-20T23:19:42.771Z,17.61
2023-04-20T23:22:09.133Z,17.56
2023-04-20T23:24:35.455Z,17.52
2023-04-20T23:27:01.864Z,17.48
2023-04-20T23:29:28.435Z,17.43
2023-04-20T23:31:54.816Z,17.40
2023-04-20T23:34:21.133Z,17.35
2023-04-20T23:36:48.026Z,17.32
2023-04-20T23:39:14.448Z,17.28
2023-04-20T23:41:40.926Z,17.23
2023-04-20T23:44:07.270Z,17.21
2023-04-20T23:46:33.630Z,17.17
2023-04-20T23:49:00.134Z,17.15
2023-04-20T23:51:26.489Z,17.10
2023-04-20T23:53:53.109Z,17.08
2023-04-20T23:56:19.386Z,17.05
2023-04-20T23:58:46.899Z,17.03
